Flight Track Log - Related Links

Times and Time Zones

All times are in EDT time to prevent confusion due to time zone crossing. See the UAL3740 flight status page for this flight to view local times or setup timezone preferences in your user account.

Time Position Orientation Groundspeed Altitude Reporting Facility
EDT Latitude Longitude Course Direction KTS MPH feet Rate Location/Type
Thu 10:12:30 AM 41.8275 -71.4900 331° Northwest 229 264 4,500  Level Boston Center
Thu 10:13:30 AM 41.8572 -71.5761 295° West 241 277 8,000 3,050 Climbing Boston Center
Thu 10:14:30 AM 41.8914 -71.6619 298° West 259 298 10,600 2,100 Climbing Boston Center
Thu 10:15:30 AM 41.9253 -71.7564 296° West 259 298 12,200 1,750 Climbing Boston Center
Thu 10:16:30 AM 41.9614 -71.8650 294° West 305 351 14,100 1,850 Climbing Boston Center
Thu 10:17:30 AM 41.9889 -71.9819 288° West 332 382 15,900 1,600 Climbing Boston Center
Thu 10:18:30 AM 42.0164 -72.1047 287° West 346 398 17,300 1,500 Climbing Boston Center
Thu 10:19:30 AM 42.0458 -72.2219 289° West 351 404 18,900 1,455 Climbing Boston Center
Thu 10:20:42 AM 42.0794 -72.3617 288° West 358 412 20,500 1,364 Climbing Boston Center
Thu 10:21:42 AM 42.1128 -72.5128 287° West 358 412 21,900 1,200 Climbing Boston Center
Thu 10:22:42 AM 42.1439 -72.6444 288° West 364 419 22,900 1,000 Climbing Boston Center
Thu 10:23:42 AM 42.1289 -72.7733 261° West 357 411 23,900 900 Climbing Boston Center
Thu 10:24:42 AM 42.0767 -72.8625 232° Southwest 345 397 24,700 1,000 Climbing Boston Center
Thu 10:25:42 AM 41.9967 -72.9989 232° Southwest 373 429 25,900 1,100 Climbing Boston Center
Thu 10:26:42 AM 41.9317 -73.1097 232° Southwest 386 444 26,900 900 Climbing Boston Center
Thu 10:27:42 AM 41.8683 -73.2178 232° Southwest 386 444 27,700 591 Climbing Boston Center
Thu 10:28:54 AM 41.8031 -73.3286 232° Southwest 386 444 28,200 500 Climbing Boston Center
Thu 10:29:54 AM 41.7206 -73.4664 231° Southwest 393 452 28,800 550 Climbing Boston Center
Thu 10:30:54 AM 41.6483 -73.5875 231° Southwest 405 466 29,300 650 Climbing Boston Center
Thu 10:31:54 AM 41.5933 -73.6808 232° Southwest 410 472 30,100 972 Climbing Boston Center
Thu 10:33:16 AM 41.4861 -73.8369 228° Southwest 410 472 31,600 814 Climbing New York Center
Thu 10:34:14 AM 41.3906 -73.9069 209° Southwest 397 457 32,000 202 Climbing New York Center
Thu 10:35:15 AM 41.3092 -73.9944 219° Southwest 397 457 32,000  Level New York Center
Thu 10:36:15 AM 41.2375 -74.1014 228° Southwest 392 451 32,000  Level New York Center
Thu 10:37:16 AM 41.1617 -74.2078 227° Southwest 392 451 32,000 -149 Level New York Center
Thu 10:38:16 AM 41.0897 -74.3142 228° Southwest 397 457 31,700 -900 Descending New York Center
Thu 10:39:16 AM 41.0175 -74.4258 229° Southwest 397 457 30,200 -1,488 Descending New York Center
Thu 10:40:17 AM 40.9411 -74.5344 227° Southwest 402 463 28,700 -1,109 Descending New York Center
Thu 10:41:15 AM 40.8853 -74.6547 238° Southwest 402 463 28,000 -356 Descending New York Center
Thu 10:42:15 AM 40.8331 -74.7833 242° Southwest 397 457 28,000  Level New York Center
Thu 10:43:16 AM 40.7744 -74.9089 238° Southwest 402 463 28,000  Level New York Center
Thu 10:44:16 AM 40.7178 -75.0367 240° Southwest 407 468 28,000  Level New York Center
Thu 10:45:17 AM 40.6589 -75.1644 239° Southwest 407 468 28,000 -694 Level New York Center
Thu 10:46:17 AM 40.5981 -75.2917 238° Southwest 415 478 26,600 -1,487 Descending New York Center
Thu 10:47:14 AM 40.5433 -75.4111 239° Southwest 402 463 25,100 -1,538 Descending New York Center
Thu 10:48:14 AM 40.4867 -75.5272 237° Southwest 390 449 23,600 -1,488 Descending New York Center
Thu 10:49:15 AM 40.4339 -75.6436 239° Southwest 385 443 22,100 -1,488 Descending New York Center
Thu 10:50:15 AM 40.3814 -75.7517 237° Southwest 373 429 20,600 -1,041 Descending New York Center
Thu 10:51:16 AM 40.3286 -75.8650 239° Southwest 368 423 20,000 -295 Descending New York Center
Thu 10:52:17 AM 40.2650 -75.9881 236° Southwest 384 442 20,000 -101 Level New York Center
Thu 10:53:15 AM 40.2031 -76.1139 237° Southwest 404 465 19,800 -902 Descending New York Center
Thu 10:54:50 AM 40.1000 -76.3333 239° Southwest 414 476 17,700 -1,316 Descending Potomac TRACON
Thu 10:55:50 AM 40.0500 -76.4500 241° Southwest 414 476 16,400 -1,250 Descending Potomac TRACON
Thu 10:56:50 AM 39.9833 -76.5833 237° Southwest 404 465 15,200 -737 Descending Potomac TRACON
Thu 10:57:44 AM 39.9333 -76.7000 241° Southwest 398 458 15,000 -105 Descending Potomac TRACON
Thu 10:58:44 AM 39.8833 -76.8167 241° Southwest 403 464 15,000  Level Potomac TRACON
Thu 10:59:44 AM 39.8167 -76.9333 233° Southwest 399 459 15,000  Level Potomac TRACON
Thu 11:00:38 AM 39.7833 -77.0333 247° West 351 404 15,000 -737 Level Potomac TRACON
Thu 11:01:38 AM 39.7333 -77.1333 237° Southwest 300 345 13,600 -1,600 Descending Potomac TRACON
Thu 11:02:38 AM 39.6833 -77.2167 232° Southwest 287 330 11,800 -1,850 Descending Potomac TRACON
Thu 11:03:38 AM 39.6500 -77.3000 243° Southwest 280 322 9,900 -1,700 Descending Potomac TRACON
Thu 11:04:38 AM 39.6000 -77.3667 226° Southwest 264 304 8,400 -1,500 Descending Potomac TRACON
Thu 11:05:38 AM 39.5667 -77.4500 243° Southwest 237 273 6,900 -1,240 Descending Potomac TRACON
Thu 11:06:39 AM 39.5333 -77.5000 229° Southwest 247 284 5,900 -1,240 Descending Potomac TRACON
Thu 11:07:39 AM 39.4667 -77.4667 159° South 256 295 4,400 -1,000 Descending Potomac TRACON
Thu 11:08:33 AM 39.4000 -77.4333 159° South 264 304 4,000 -211 Descending Potomac TRACON
Thu 11:09:33 AM 39.3333 -77.4000 159° South 256 295 4,000  Level Potomac TRACON
Thu 11:10:33 AM 39.2667 -77.3667 159° South 254 292 4,000  Level Potomac TRACON
Thu 11:11:33 AM 39.2000 -77.3667 180° South 254 292 4,000  Level Potomac TRACON
Thu 11:12:33 AM 39.1333 -77.3667 180° South 251 289 4,000  Level Potomac TRACON
Thu 11:13:28 AM 39.0667 -77.3667 180° South 251 289 4,000  Level Potomac TRACON
Thu 11:14:28 AM 39.0000 -77.3500 169° South 250 288 4,000  Level Potomac TRACON
Thu 11:15:28 AM 38.9333 -77.3500 180° South 259 298 4,000  Level Potomac TRACON
Thu 11:16:28 AM 38.8667 -77.3667 191° South 212 244 4,000  Level Potomac TRACON
Thu 11:17:29 AM 38.8000 -77.3667 180° South 208 239 4,000 -261 Level Potomac TRACON
Thu 11:18:23 AM 38.7500 -77.3667 180° South 206 237 3,500 -684 Descending Potomac TRACON
Thu 11:19:23 AM 38.7333 -77.4000 237° Southwest 213 245 2,700 -750 Descending Potomac TRACON
Thu 11:20:23 AM 38.7667 -77.4333 322° Northwest 185 213 2,000 -700 Descending Potomac TRACON

Login

Don't have an account? Register now (free) for customized features, flight alerts, and more!